Shawnee Mission, KS (66202)

10:32 AM CDT on August 24, 2016 (GMT -0500)
Wolf's Den | | Change Station

Elev 991 ft 39.02 °N, 94.65 °W | Updated 11 seconds ago

Light Rain
Light Rain
74.8 °F
Feels Like 73 °F
N
0.0
Wind Variable Wind from SW
Gusts 0.0 mph

Today
High -- | Low -- °F
--% Chance of Precip.
Yesterday
High -- | Low -- °F
Precip. -- in
Pressure 29.95 in
Visibility 10.0 miles
Clouds Few 3600 ft
Scattered Clouds 7500 ft
Mostly Cloudy 10000 ft
Heat Index 73 °F
Dew Point 73 °F
Humidity 95%
Rainfall 0.05 in
Snow Depth Not available.
6:40 AM 8:00 PM
Waning Gibbous, 56% visible
METAR KMKC 241454Z 20006KT 10SM -RA FEW036 SCT075 BKN100 25/22 A2998 RMK AO2 RAB32 SLP142 P0000 60000 T02500222 53004
Pressure 29.95 in
Visibility 10.0 miles
Clouds Few 3600 ft
Scattered Clouds 7500 ft
Mostly Cloudy 10000 ft
Heat Index 73 °F
Dew Point 73 °F
Humidity 95%
Rainfall 0.05 in
Snow Depth Not available.
6:40 AM 8:00 PM
Waning Gibbous, 56% visible
METAR KMKC 241454Z 20006KT 10SM -RA FEW036 SCT075 BKN100 25/22 A2998 RMK AO2 RAB32 SLP142 P0000 60000 T02500222 53004

10-Day Weather Forecast

Almanac

Astronomy

Aug. 24, 2016 Rise Set
Actual Time
Civil Twilight
Nautical Twilight
Astronomical Twilight
Moon
Length of Visible Light
Length of Day
Tomorrow will be .
, % of the Moon is Illuminated

Today's Extremes

State Highs State Lows

Community

WunderPhotos

Upload Photos

1,934,618 photos uploaded!

WunderBlog® & News

Nearby

Air Quality

  Air Quality AQ Index Pollutant
Not available.

Snow Depth

Station Depth Elevation

Earthquake Activity

City Distance Mag. Time & Date
Minimum magnitude displayed is 2.5.

Coastal Water Temperatures

Place Temperature

Stations

Nearby Weather Stations

Station Location Temp. Windchill Dew Point Humidity Wind Precip. Elev Updated Type
                   

Watches & Warnings

There are currently no watches in effect.